createdAt,value
2022-11-21T00:02:12.867Z,93.92
2022-11-21T00:07:14.664Z,93.14
2022-11-21T00:12:16.619Z,93.09
2022-11-21T00:17:18.261Z,92.64
2022-11-21T00:22:19.877Z,93.16
2022-11-21T00:27:21.500Z,92.89
2022-11-21T00:32:23.360Z,92.88
2022-11-21T00:37:25.026Z,92.44
2022-11-21T00:42:26.839Z,92.74
2022-11-21T00:47:28.460Z,92.33
2022-11-21T00:52:30.109Z,91.95
2022-11-21T00:57:31.751Z,92.62
2022-11-21T01:02:33.626Z,91.87
2022-11-21T01:07:35.575Z,91.65
2022-11-21T01:12:37.192Z,91.54
2022-11-21T01:17:38.813Z,92.17
2022-11-21T01:22:40.465Z,91.65
2022-11-21T01:27:42.101Z,92.37
2022-11-21T01:32:43.737Z,92.24
2022-11-21T01:37:49.140Z,92.01
2022-11-21T01:42:57.603Z,91.66
2022-11-21T01:47:59.477Z,92.41
2022-11-21T01:53:01.146Z,91.75
2022-11-21T01:58:02.950Z,91.78
2022-11-21T02:03:09.779Z,92.57
2022-11-21T02:08:15.255Z,92.50
2022-11-21T02:13:17.134Z,92.71
2022-11-21T02:18:18.822Z,92.92
2022-11-21T02:23:28.145Z,92.99
2022-11-21T02:28:29.825Z,92.61
2022-11-21T02:33:31.440Z,93.48
2022-11-21T02:38:35.653Z,93.43
2022-11-21T02:43:47.830Z,93.81
2022-11-21T02:48:49.562Z,93.77
2022-11-21T02:53:51.163Z,94.13
2022-11-21T02:58:52.822Z,94.17
2022-11-21T03:03:54.788Z,93.92
2022-11-21T03:08:56.448Z,94.32
2022-11-21T03:13:58.118Z,93.44
2022-11-21T03:18:59.835Z,94.03
2022-11-21T03:24:01.520Z,94.15
2022-11-21T03:29:03.206Z,94.55
2022-11-21T03:34:06.145Z,94.53
2022-11-21T03:39:08.011Z,94.28
2022-11-21T03:44:11.463Z,94.33
2022-11-21T03:49:14.220Z,94.65
2022-11-21T03:54:15.836Z,94.82
2022-11-21T03:59:17.498Z,94.81
2022-11-21T04:04:19.249Z,94.80
2022-11-21T04:09:20.913Z,94.31
2022-11-21T04:14:22.583Z,94.45
2022-11-21T04:19:24.209Z,94.56
2022-11-21T04:24:26.225Z,94.56
2022-11-21T04:29:28.256Z,94.48
2022-11-21T04:34:30.112Z,94.41
2022-11-21T04:39:32.025Z,94.67
2022-11-21T04:44:33.668Z,94.55
2022-11-21T04:49:35.376Z,94.67
2022-11-21T04:54:37.081Z,94.44
2022-11-21T04:59:38.758Z,94.75
2022-11-21T05:04:40.663Z,94.83
2022-11-21T05:09:42.383Z,94.95
2022-11-21T05:14:44.079Z,94.53
2022-11-21T05:19:46.382Z,94.72
2022-11-21T05:24:47.967Z,94.33
2022-11-21T05:29:49.656Z,94.27
2022-11-21T05:34:51.309Z,94.45
2022-11-21T05:39:53.230Z,94.62
2022-11-21T05:44:54.897Z,95.00
2022-11-21T05:49:56.508Z,95.70
2022-11-21T05:54:58.254Z,95.70
2022-11-21T05:59:59.937Z,96.31
2022-11-21T06:05:01.993Z,96.67
2022-11-21T06:10:03.916Z,96.96
2022-11-21T06:15:05.875Z,96.96
2022-11-21T06:20:08.367Z,97.04
2022-11-21T06:25:10.174Z,97.02
2022-11-21T06:30:11.886Z,97.17
2022-11-21T06:35:13.568Z,97.13
2022-11-21T06:40:15.501Z,97.00
2022-11-21T06:45:17.135Z,97.38
2022-11-21T06:50:18.840Z,97.22
2022-11-21T06:55:21.456Z,97.04
2022-11-21T07:00:24.830Z,97.38
2022-11-21T07:05:26.642Z,97.49
2022-11-21T07:10:29.421Z,97.27
2022-11-21T07:15:33.307Z,97.61
2022-11-21T07:20:34.983Z,97.18
2022-11-21T07:25:37.055Z,96.83
2022-11-21T07:30:38.834Z,96.25
2022-11-21T07:35:40.485Z,96.56
2022-11-21T07:40:42.197Z,96.35
2022-11-21T07:45:43.850Z,96.01
2022-11-21T07:50:45.474Z,95.54
2022-11-21T07:55:47.090Z,95.67
2022-11-21T08:00:48.711Z,95.45
2022-11-21T08:05:50.683Z,94.65
2022-11-21T08:10:52.347Z,93.92
2022-11-21T08:15:53.997Z,93.51
2022-11-21T08:20:56.089Z,93.43
2022-11-21T08:25:57.840Z,93.26
2022-11-21T08:30:59.512Z,92.61
2022-11-21T08:36:07.632Z,92.49
2022-11-21T08:41:30.865Z,92.37
2022-11-21T08:46:37.294Z,93.09
2022-11-21T08:51:38.960Z,93.00
2022-11-21T08:56:40.663Z,92.95
2022-11-21T09:01:42.915Z,92.69
2022-11-21T09:06:44.967Z,93.21
2022-11-21T09:11:46.580Z,92.84
2022-11-21T09:17:06.955Z,92.82
2022-11-21T09:22:08.635Z,91.91
2022-11-21T09:27:10.273Z,92.51
2022-11-21T09:32:12.021Z,92.35
2022-11-21T09:37:16.356Z,93.28
2022-11-21T09:42:23.904Z,92.70
2022-11-21T09:47:30.942Z,92.39
2022-11-21T09:52:44.435Z,92.48
2022-11-21T09:57:48.327Z,92.98
2022-11-21T10:02:52.024Z,93.00
2022-11-21T10:07:54.300Z,92.54
2022-11-21T10:13:26.314Z,91.37
2022-11-21T10:18:42.944Z,91.31
2022-11-21T10:24:25.161Z,90.73
2022-11-21T10:29:37.570Z,90.82
2022-11-21T10:34:39.300Z,91.13
2022-11-21T10:39:52.419Z,91.41
2022-11-21T10:45:14.167Z,91.09
2022-11-21T10:50:40.724Z,91.36
2022-11-21T10:55:56.740Z,90.44
2022-11-21T11:00:58.580Z,90.51
2022-11-21T11:06:00.359Z,90.76
2022-11-21T11:11:13.913Z,89.39
2022-11-21T11:16:18.361Z,89.77
2022-11-21T11:21:28.470Z,89.94
2022-11-21T11:26:31.471Z,89.61
2022-11-21T11:31:55.735Z,89.63
2022-11-21T11:37:09.622Z,89.23
2022-11-21T11:42:54.114Z,88.55
2022-11-21T11:47:59.682Z,88.40
2022-11-21T11:53:39.500Z,88.81
2022-11-21T11:59:02.446Z,88.15
2022-11-21T12:04:21.469Z,88.45
2022-11-21T12:09:36.257Z,89.47
2022-11-21T12:14:59.802Z,89.48
2022-11-21T12:20:04.463Z,88.83
2022-11-21T12:25:15.356Z,89.10
2022-11-21T12:30:54.936Z,89.30
2022-11-21T12:36:19.577Z,88.97
2022-11-21T12:41:56.290Z,89.09
2022-11-21T12:47:01.030Z,88.48
2022-11-21T12:52:42.333Z,88.70
2022-11-21T12:58:02.243Z,88.44
2022-11-21T13:03:23.539Z,89.18
2022-11-21T13:08:28.584Z,89.11
2022-11-21T13:13:32.723Z,88.46
2022-11-21T13:18:43.573Z,88.14
2022-11-21T13:23:45.172Z,89.40
2022-11-21T13:28:47.225Z,88.87
2022-11-21T13:33:51.021Z,88.97
2022-11-21T13:38:55.502Z,88.22
2022-11-21T13:44:29.182Z,88.14
2022-11-21T13:50:01.889Z,88.76
2022-11-21T13:55:40.603Z,88.29
2022-11-21T14:01:09.097Z,89.10
2022-11-21T14:06:53.815Z,88.12
2022-11-21T14:11:59.922Z,88.68
2022-11-21T14:17:04.900Z,88.71
2022-11-21T14:22:15.352Z,88.63
2022-11-21T14:27:24.840Z,88.81
2022-11-21T14:32:28.357Z,89.45
2022-11-21T14:37:30.368Z,90.03
2022-11-21T14:42:36.654Z,90.77
2022-11-21T14:47:47.111Z,90.61
2022-11-21T14:52:56.957Z,90.63
2022-11-21T14:58:00.831Z,91.46
2022-11-21T15:03:30.416Z,91.70
2022-11-21T15:09:06.011Z,92.25
2022-11-21T15:14:15.603Z,92.66
2022-11-21T15:19:23.799Z,92.27
2022-11-21T15:24:30.211Z,92.32
2022-11-21T15:29:32.233Z,91.77
2022-11-21T15:34:35.952Z,92.16
2022-11-21T15:39:42.987Z,92.54
2022-11-21T15:45:02.161Z,92.25
2022-11-21T15:50:04.087Z,92.58
2022-11-21T15:55:12.645Z,92.35
2022-11-21T16:00:14.857Z,92.49
2022-11-21T16:05:16.548Z,92.36
2022-11-21T16:10:24.379Z,92.19
2022-11-21T16:15:29.314Z,92.71
2022-11-21T16:20:30.999Z,92.40
2022-11-21T16:25:32.670Z,92.71
2022-11-21T16:30:34.459Z,92.31
2022-11-21T16:35:38.581Z,92.44
2022-11-21T16:40:40.796Z,92.12
2022-11-21T16:45:42.424Z,92.70
2022-11-21T16:50:44.372Z,92.93
2022-11-21T16:55:45.978Z,92.80
2022-11-21T17:00:47.725Z,92.62
2022-11-21T17:05:59.213Z,92.99
2022-11-21T17:11:21.135Z,92.82
2022-11-21T17:16:23.440Z,92.57
2022-11-21T17:21:26.483Z,92.31
2022-11-21T17:26:28.864Z,92.50
2022-11-21T17:31:31.070Z,92.56
2022-11-21T17:36:34.622Z,92.70
2022-11-21T17:41:38.104Z,92.16
2022-11-21T17:46:39.996Z,92.27
2022-11-21T17:51:41.946Z,92.17
2022-11-21T17:56:46.607Z,92.43
2022-11-21T18:01:50.949Z,92.61
2022-11-21T18:06:52.687Z,92.32
2022-11-21T18:11:54.925Z,93.23
2022-11-21T18:16:56.680Z,93.66
2022-11-21T18:21:58.304Z,94.01
2022-11-21T18:27:00.013Z,94.11
2022-11-21T18:32:01.648Z,93.84
2022-11-21T18:37:03.479Z,94.05
2022-11-21T18:42:05.200Z,94.43
2022-11-21T18:47:19.681Z,94.51
2022-11-21T18:52:22.274Z,94.66
2022-11-21T18:57:23.877Z,95.29
2022-11-21T19:02:25.588Z,95.42
2022-11-21T19:07:27.322Z,95.64
2022-11-21T19:12:29.234Z,94.97
2022-11-21T19:17:30.851Z,94.95
2022-11-21T19:22:32.491Z,95.06
2022-11-21T19:27:34.301Z,95.02
2022-11-21T19:32:36.739Z,95.10
2022-11-21T19:37:38.434Z,94.65
2022-11-21T19:42:40.392Z,94.58
2022-11-21T19:47:43.184Z,94.68
2022-11-21T19:52:44.855Z,94.92
2022-11-21T19:57:46.504Z,95.06
2022-11-21T20:02:48.126Z,94.76
2022-11-21T20:07:49.841Z,94.58
2022-11-21T20:12:51.561Z,94.85
2022-11-21T20:17:53.742Z,94.32
2022-11-21T20:22:55.437Z,94.65
2022-11-21T20:27:57.270Z,95.53
2022-11-21T20:32:58.932Z,95.06
2022-11-21T20:38:00.615Z,94.88
2022-11-21T20:43:02.308Z,95.52
2022-11-21T20:48:09.821Z,95.37
2022-11-21T20:58:36.894Z,94.92
2022-11-21T21:03:39.036Z,95.05
2022-11-21T21:08:40.697Z,95.36
2022-11-21T21:13:47.208Z,95.23
2022-11-21T21:18:52.474Z,94.86
2022-11-21T21:24:05.623Z,94.95
2022-11-21T21:29:08.260Z,94.57
2022-11-21T21:34:10.370Z,94.38
2022-11-21T21:39:12.070Z,94.82
2022-11-21T21:44:14.085Z,94.04
2022-11-21T21:49:16.072Z,93.96
2022-11-21T21:54:19.779Z,93.88
2022-11-21T21:59:21.536Z,94.12
2022-11-21T22:04:23.236Z,93.62
2022-11-21T22:09:24.900Z,94.32
2022-11-21T22:14:26.615Z,94.26
2022-11-21T22:19:28.782Z,94.46
2022-11-21T22:24:30.939Z,94.28
2022-11-21T22:29:32.915Z,93.28
2022-11-21T22:34:34.725Z,93.20
2022-11-21T22:39:36.366Z,92.62
2022-11-21T22:44:38.016Z,92.29
2022-11-21T22:49:39.639Z,92.46
2022-11-21T22:54:41.250Z,92.38
2022-11-21T22:59:42.922Z,92.36
2022-11-21T23:04:44.998Z,92.62
2022-11-21T23:09:46.643Z,92.07
2022-11-21T23:14:48.432Z,92.40
2022-11-21T23:19:51.083Z,92.14
2022-11-21T23:24:53.059Z,91.79
2022-11-21T23:29:54.789Z,92.06
2022-11-21T23:34:56.459Z,92.42
2022-11-21T23:40:01.543Z,92.44
2022-11-21T23:45:06.931Z,92.51
2022-11-21T23:50:09.257Z,92.10
2022-11-21T23:55:12.459Z,92.72
